Time;durP1;ratioP1;P1;durP2;ratioP2;P2;SDS_P1;SDS_P2;PMS_P1;PMS_P2;Temp;Humidity;BMP_temperature;BMP_pressure;BME280_temperature;BME280_humidity;BME280_pressure;Samples;Min_cycle;Max_cycle;Signal;HPM_P1;HPM_P2
2023/04/10 00:01:23;;;;;;;12.47;11.97;;;8.10;99.90;;;;;;5094743;28;20454;-69
2023/04/10 00:03:50;;;;;;;12.47;11.97;;;8.10;99.90;;;;;;5093082;28;20540;-68
2023/04/10 00:06:20;;;;;;;12.30;11.80;;;8.00;99.90;;;;;;5089438;28;20574;-67
2023/04/10 00:08:47;;;;;;;11.33;10.93;;;8.00;99.90;;;;;;5100061;28;20883;-68
2023/04/10 00:11:15;;;;;;;11.77;11.37;;;7.90;99.90;;;;;;5088625;28;20462;-68
2023/04/10 00:13:41;;;;;;;11.40;11.00;;;7.90;99.90;;;;;;5095851;28;20549;-68
2023/04/10 00:16:08;;;;;;;12.57;12.07;;;7.90;99.90;;;;;;5091565;28;20462;-68
2023/04/10 00:18:35;;;;;;;11.67;11.27;;;7.90;99.90;;;;;;5096068;28;20492;-67
2023/04/10 00:21:03;;;;;;;12.40;11.90;;;7.90;99.90;;;;;;5093571;28;20839;-68
2023/04/10 00:23:33;;;;;;;11.53;11.03;;;7.90;99.90;;;;;;5097319;28;20466;-67
2023/04/10 00:26:00;;;;;;;11.43;11.03;;;7.90;99.90;;;;;;5100249;28;20504;-69
2023/04/10 00:28:27;;;;;;;11.40;11.00;;;7.90;99.90;;;;;;5098264;28;20516;-69
2023/04/10 00:30:55;;;;;;;11.10;10.70;;;7.90;99.90;;;;;;5094307;28;20466;-69
2023/04/10 00:33:22;;;;;;;12.43;11.83;;;8.00;99.90;;;;;;5097342;28;20463;-67
2023/04/10 00:35:49;;;;;;;11.10;10.70;;;7.90;99.90;;;;;;5101300;28;20461;-67
2023/04/10 00:38:16;;;;;;;11.10;10.70;;;7.90;99.90;;;;;;5090166;28;20526;-67
2023/04/10 00:40:44;;;;;;;11.10;10.70;;;7.90;99.90;;;;;;5096538;28;20486;-69
2023/04/10 00:43:11;;;;;;;11.50;11.10;;;7.90;99.90;;;;;;5090505;28;20454;-67
2023/04/10 00:45:39;;;;;;;10.70;10.30;;;8.00;99.90;;;;;;5087317;28;20489;-68
2023/04/10 00:48:06;;;;;;;11.80;11.30;;;8.00;99.90;;;;;;5091421;28;20488;-69
2023/04/10 00:50:33;;;;;;;11.90;11.40;;;8.00;99.90;;;;;;5097064;28;20944;-69
2023/04/10 00:53:00;;;;;;;11.67;11.27;;;8.00;99.90;;;;;;5097285;28;20453;-68
2023/04/10 00:55:27;;;;;;;12.00;11.60;;;8.00;99.90;;;;;;5097018;28;20940;-68
2023/04/10 00:57:57;;;;;;;11.63;11.23;;;8.00;99.90;;;;;;5102711;28;20960;-69
2023/04/10 01:00:23;;;;;;;12.43;11.93;;;8.00;99.90;;;;;;5096318;28;20458;-67
2023/04/10 01:02:50;;;;;;;12.10;11.60;;;8.10;99.90;;;;;;5100999;28;20495;-67
2023/04/10 01:05:19;;;;;;;10.93;10.53;;;8.10;99.90;;;;;;5094880;28;20485;-69
2023/04/10 01:08:01;;;;;;;11.80;11.40;;;8.00;99.90;;;;;;5095615;28;20962;-68
2023/04/10 01:10:36;;;;;;;12.80;12.30;;;8.10;99.90;;;;;;5095903;28;20543;-68
2023/04/10 01:13:11;;;;;;;11.60;11.20;;;8.10;99.90;;;;;;5098178;28;20857;-67
2023/04/10 01:15:43;;;;;;;11.30;10.90;;;8.10;99.90;;;;;;5099547;28;20463;-68
2023/04/10 01:18:17;;;;;;;12.40;11.90;;;8.10;99.90;;;;;;5099369;28;20827;-68
2023/04/10 01:20:44;;;;;;;11.30;10.90;;;8.10;99.90;;;;;;5094371;28;20793;-67
2023/04/10 01:23:42;;;;;;;11.70;11.30;;;8.10;99.90;;;;;;5091967;28;21308;-68
2023/04/10 01:26:11;;;;;;;11.30;10.90;;;8.00;99.90;;;;;;5093715;28;20542;-67
2023/04/10 01:29:00;;;;;;;12.77;12.23;;;8.00;99.90;;;;;;5087236;28;20947;-67
2023/04/10 01:31:34;;;;;;;12.30;11.80;;;8.00;99.90;;;;;;5086888;28;20794;-68
2023/04/10 01:34:07;;;;;;;11.50;11.10;;;7.90;99.90;;;;;;5098688;28;20935;-68
2023/04/10 01:36:37;;;;;;;12.30;11.80;;;8.00;99.90;;;;;;5104264;28;20461;-66
2023/04/10 01:39:06;;;;;;;11.93;11.53;;;8.00;99.90;;;;;;5093884;28;20477;-67
2023/04/10 01:41:35;;;;;;;11.70;11.20;;;8.00;99.90;;;;;;5097056;28;20537;-68
2023/04/10 01:44:04;;;;;;;12.57;11.87;;;8.00;99.90;;;;;;5108000;28;20463;-68
2023/04/10 01:46:31;;;;;;;14.27;13.67;;;7.90;99.90;;;;;;5097260;28;20489;-68
2023/04/10 01:49:02;;;;;;;12.10;11.60;;;7.90;99.90;;;;;;5103081;28;21008;-68
2023/04/10 01:51:32;;;;;;;11.40;11.00;;;7.90;99.90;;;;;;5090515;28;21003;-67
2023/04/10 01:54:00;;;;;;;12.40;11.90;;;7.80;99.90;;;;;;5086165;28;20488;-67
2023/04/10 01:56:29;;;;;;;12.17;11.67;;;7.80;99.90;;;;;;5111157;28;20869;-67
2023/04/10 01:58:57;;;;;;;13.60;12.90;;;7.80;99.90;;;;;;5097040;28;20458;-68
2023/04/10 02:01:25;;;;;;;14.90;13.83;;;7.70;99.90;;;;;;5097592;28;20460;-68
2023/04/10 02:03:53;;;;;;;12.73;12.17;;;7.70;99.90;;;;;;5098979;28;20471;-67
2023/04/10 02:06:30;;;;;;;13.40;12.80;;;7.60;99.90;;;;;;5092207;28;20482;-68
2023/04/10 02:09:08;;;;;;;12.10;11.63;;;7.60;99.90;;;;;;5103130;28;20491;-69
2023/04/10 02:11:41;;;;;;;12.17;11.70;;;7.50;99.90;;;;;;5090137;28;20812;-68
2023/04/10 02:14:16;;;;;;;11.80;11.40;;;7.50;99.90;;;;;;5096575;28;20492;-68
2023/04/10 02:16:45;;;;;;;12.13;11.63;;;7.50;99.90;;;;;;5095865;28;20461;-68
2023/04/10 02:19:13;;;;;;;11.60;11.20;;;7.40;99.90;;;;;;5090032;28;20461;-67
2023/04/10 02:21:42;;;;;;;12.00;11.50;;;7.30;99.90;;;;;;5103226;28;20504;-68
2023/04/10 02:24:10;;;;;;;12.50;11.80;;;7.20;99.90;;;;;;5095330;28;20458;-69
2023/04/10 02:26:47;;;;;;;11.37;10.97;;;7.20;99.90;;;;;;5109495;28;20914;-68
2023/04/10 02:29:13;;;;;;;12.07;11.57;;;7.10;99.90;;;;;;5096380;28;20498;-68
2023/04/10 02:31:41;;;;;;;11.90;11.40;;;7.10;99.90;;;;;;5106402;28;20927;-68
2023/04/10 02:34:10;;;;;;;13.17;12.63;;;7.10;99.90;;;;;;5096433;28;20944;-69
2023/04/10 02:36:38;;;;;;;11.33;10.93;;;7.00;99.90;;;;;;5092176;28;20464;-68
2023/04/10 02:39:05;;;;;;;11.50;11.10;;;7.00;99.90;;;;;;5095576;28;20890;-69
2023/04/10 02:41:32;;;;;;;11.57;11.17;;;7.00;99.90;;;;;;5100835;28;20502;-68
2023/04/10 02:43:59;;;;;;;12.57;12.07;;;7.00;99.90;;;;;;5100625;28;20469;-69
2023/04/10 02:46:26;;;;;;;11.30;10.90;;;7.00;99.90;;;;;;5084614;28;20485;-68
2023/04/10 02:48:55;;;;;;;11.10;10.70;;;7.00;99.90;;;;;;5103118;28;20861;-68
2023/04/10 02:51:23;;;;;;;11.60;11.20;;;6.90;99.90;;;;;;5101877;28;20517;-68
2023/04/10 02:53:51;;;;;;;12.20;11.70;;;6.90;99.90;;;;;;5095827;28;20939;-68
2023/04/10 02:56:19;;;;;;;11.43;11.03;;;6.90;99.90;;;;;;5098069;28;20469;-69
2023/04/10 02:58:46;;;;;;;11.20;10.80;;;6.90;99.90;;;;;;5102479;28;20458;-68
2023/04/10 03:01:13;;;;;;;11.60;11.20;;;6.80;99.90;;;;;;5091162;28;20493;-68
2023/04/10 03:03:40;;;;;;;12.30;11.80;;;6.80;99.90;;;;;;5083155;28;20458;-68
2023/04/10 03:06:11;;;;;;;11.70;11.30;;;6.80;99.90;;;;;;5091143;28;21029;-67
2023/04/10 03:08:39;;;;;;;10.60;10.20;;;6.80;99.90;;;;;;5100315;28;20562;-68
2023/04/10 03:11:07;;;;;;;11.43;11.03;;;6.80;99.90;;;;;;5099294;28;20456;-69
2023/04/10 03:13:35;;;;;;;11.60;11.20;;;6.80;99.90;;;;;;5095888;28;20519;-68
2023/04/10 03:16:02;;;;;;;11.20;10.80;;;6.70;99.90;;;;;;5097878;28;20847;-69
2023/04/10 03:18:30;;;;;;;12.13;11.63;;;6.80;99.90;;;;;;5100362;28;20506;-68
2023/04/10 03:20:57;;;;;;;12.87;12.20;;;6.70;99.90;;;;;;5094098;28;20465;-67
2023/04/10 03:23:24;;;;;;;12.23;11.70;;;6.70;99.90;;;;;;5097937;28;20740;-68
2023/04/10 03:25:53;;;;;;;11.63;11.13;;;6.60;99.90;;;;;;5099867;28;20538;-67
2023/04/10 03:28:20;;;;;;;11.40;11.00;;;6.70;99.90;;;;;;5097348;28;20460;-67
2023/04/10 03:30:47;;;;;;;11.50;11.10;;;6.70;99.90;;;;;;5090941;28;20582;-67
2023/04/10 03:33:14;;;;;;;11.20;10.80;;;6.70;99.90;;;;;;5089189;28;20464;-67
2023/04/10 03:35:41;;;;;;;11.23;10.83;;;6.60;99.90;;;;;;5095078;28;21007;-68
2023/04/10 03:38:08;;;;;;;12.93;12.23;;;6.60;99.90;;;;;;5097039;28;20868;-67
2023/04/10 03:40:35;;;;;;;11.63;11.10;;;6.60;99.90;;;;;;5096352;28;21029;-68
2023/04/10 03:43:03;;;;;;;10.77;10.37;;;6.50;99.90;;;;;;5086874;28;20964;-69
2023/04/10 03:45:30;;;;;;;11.20;10.80;;;6.60;99.90;;;;;;5094864;28;20465;-68
2023/04/10 03:47:57;;;;;;;11.13;10.73;;;6.60;99.90;;;;;;5100599;28;20480;-69
2023/04/10 03:50:23;;;;;;;12.70;12.20;;;6.60;99.90;;;;;;5089558;28;20465;-67
2023/04/10 03:52:51;;;;;;;11.73;11.33;;;6.60;99.90;;;;;;5091090;28;20449;-68
2023/04/10 03:55:18;;;;;;;11.50;11.00;;;6.60;99.90;;;;;;5099115;28;20465;-68
2023/04/10 03:57:45;;;;;;;11.87;11.37;;;6.60;99.90;;;;;;5096095;28;20497;-66
2023/04/10 04:00:15;;;;;;;11.87;11.40;;;6.50;99.90;;;;;;5096777;28;20454;-68
2023/04/10 04:02:42;;;;;;;12.40;11.17;;;6.60;99.90;;;;;;5101631;28;20495;-68
2023/04/10 04:05:09;;;;;;;15.83;11.73;;;6.60;99.90;;;;;;5096730;28;20460;-67
2023/04/10 04:07:36;;;;;;;12.03;11.53;;;6.50;99.90;;;;;;5097920;28;20814;-68
2023/04/10 04:10:03;;;;;;;12.53;11.87;;;6.60;99.90;;;;;;5107788;28;20484;-68
2023/04/10 04:12:30;;;;;;;13.07;12.47;;;6.60;99.90;;;;;;5094547;28;20456;-68
2023/04/10 04:14:57;;;;;;;11.20;10.80;;;6.70;99.90;;;;;;5094279;28;20514;-68
2023/04/10 04:17:25;;;;;;;12.00;11.40;;;6.60;99.90;;;;;;5094539;28;20902;-68
2023/04/10 04:19:52;;;;;;;13.20;12.30;;;6.60;99.90;;;;;;5093664;28;20481;-68
2023/04/10 04:22:20;;;;;;;11.63;11.23;;;6.50;99.90;;;;;;5100684;28;20499;-67
2023/04/10 04:24:47;;;;;;;12.27;11.77;;;6.50;99.90;;;;;;5101720;28;20452;-67
2023/04/10 04:27:14;;;;;;;12.90;11.80;;;6.50;99.90;;;;;;5091240;28;20517;-67
2023/04/10 04:29:42;;;;;;;12.20;11.73;;;6.40;99.90;;;;;;5087504;28;20463;-68
2023/04/10 04:32:10;;;;;;;11.17;10.77;;;6.40;99.90;;;;;;5096892;28;20556;-68
2023/04/10 04:34:39;;;;;;;11.90;11.40;;;6.40;99.90;;;;;;5092531;28;20468;-68
2023/04/10 04:37:05;;;;;;;11.17;10.70;;;6.40;99.90;;;;;;5105196;28;20544;-67
2023/04/10 04:39:33;;;;;;;11.33;10.83;;;6.30;99.90;;;;;;5093982;28;20917;-68
2023/04/10 04:42:00;;;;;;;11.70;11.27;;;6.30;99.90;;;;;;5103265;28;20460;-68
2023/04/10 04:44:26;;;;;;;11.40;10.90;;;6.40;99.90;;;;;;5106229;28;20457;-68
2023/04/10 04:46:53;;;;;;;11.47;10.97;;;6.30;99.90;;;;;;5091325;28;20848;-68
2023/04/10 04:49:20;;;;;;;10.97;10.57;;;6.30;99.90;;;;;;5101058;28;20964;-67
2023/04/10 04:51:48;;;;;;;14.23;13.13;;;6.30;99.90;;;;;;5098129;28;20469;-67
2023/04/10 04:54:15;;;;;;;11.43;10.93;;;6.30;99.90;;;;;;5090810;28;20451;-69
2023/04/10 04:56:43;;;;;;;11.07;10.67;;;6.20;99.90;;;;;;5100118;28;20473;-67
2023/04/10 04:59:10;;;;;;;12.10;11.60;;;6.30;99.90;;;;;;5092661;28;20465;-68
2023/04/10 05:01:37;;;;;;;17.87;13.33;;;6.30;99.90;;;;;;5097837;28;20515;-69
2023/04/10 05:04:04;;;;;;;12.23;11.53;;;6.30;99.90;;;;;;5093224;28;20465;-68
2023/04/10 05:06:31;;;;;;;11.60;11.20;;;6.30;99.90;;;;;;5090281;28;20484;-68
2023/04/10 05:09:00;;;;;;;10.80;10.40;;;6.30;99.90;;;;;;5101315;28;20794;-68
2023/04/10 05:11:27;;;;;;;11.80;11.10;;;6.20;99.90;;;;;;5091232;28;20472;-67
2023/04/10 05:13:54;;;;;;;12.27;11.67;;;6.30;99.90;;;;;;5104552;28;20475;-68
2023/04/10 05:16:21;;;;;;;13.63;12.80;;;6.30;99.90;;;;;;5090257;28;20515;-68
2023/04/10 05:18:48;;;;;;;12.30;11.77;;;6.30;99.90;;;;;;5104459;28;20471;-67
2023/04/10 05:21:15;;;;;;;11.27;10.87;;;6.30;99.90;;;;;;5096939;28;20460;-68
2023/04/10 05:23:42;;;;;;;29.67;12.03;;;6.20;99.90;;;;;;5104379;28;20458;-68
2023/04/10 05:26:12;;;;;;;11.23;10.83;;;6.30;99.90;;;;;;5104234;28;20500;-68
2023/04/10 05:28:38;;;;;;;11.83;11.37;;;6.30;99.90;;;;;;5098765;28;20891;-68
2023/04/10 05:31:06;;;;;;;10.80;10.40;;;6.40;99.90;;;;;;5096268;28;20934;-68
2023/04/10 05:33:33;;;;;;;12.17;11.67;;;6.40;99.90;;;;;;5082210;28;20454;-67
2023/04/10 05:36:00;;;;;;;11.60;11.10;;;6.50;99.90;;;;;;5084069;28;20505;-67
2023/04/10 05:38:27;;;;;;;31.97;11.40;;;6.60;99.90;;;;;;5097163;28;21004;-67
2023/04/10 05:40:54;;;;;;;11.27;10.77;;;6.70;99.90;;;;;;5099756;28;20484;-68
2023/04/10 05:43:23;;;;;;;11.63;11.03;;;6.80;99.90;;;;;;5098568;28;20509;-68
2023/04/10 05:45:50;;;;;;;12.00;11.40;;;6.80;99.90;;;;;;5096054;28;20461;-68
2023/04/10 05:48:17;;;;;;;11.70;11.30;;;6.90;99.90;;;;;;5103986;28;20579;-68
2023/04/10 05:50:44;;;;;;;14.20;13.50;;;7.00;99.90;;;;;;5098727;28;20966;-68
2023/04/10 05:53:13;;;;;;;11.70;11.20;;;7.00;99.90;;;;;;5097097;28;20453;-67
2023/04/10 05:55:40;;;;;;;13.23;12.57;;;7.20;99.90;;;;;;5100761;28;20469;-68
2023/04/10 05:58:07;;;;;;;15.00;14.10;;;7.20;99.90;;;;;;5090160;28;20454;-69
2023/04/10 06:00:35;;;;;;;11.73;11.23;;;7.30;99.90;;;;;;5090694;28;20484;-67
2023/04/10 06:03:03;;;;;;;13.27;12.63;;;7.30;99.90;;;;;;5092044;28;20516;-66
2023/04/10 06:05:30;;;;;;;11.60;11.20;;;7.40;99.90;;;;;;5090501;28;20501;-67
2023/04/10 06:07:56;;;;;;;14.53;13.53;;;7.40;99.90;;;;;;5089389;28;20516;-69
2023/04/10 06:10:23;;;;;;;14.27;13.47;;;7.60;99.90;;;;;;5089376;28;20458;-68
2023/04/10 06:12:50;;;;;;;14.33;13.10;;;7.70;99.90;;;;;;5090356;28;20465;-68
2023/04/10 06:15:18;;;;;;;15.07;14.27;;;7.80;99.90;;;;;;5086647;28;20894;-68
2023/04/10 06:17:46;;;;;;;13.73;13.03;;;7.90;99.90;;;;;;5087093;28;20458;-67
2023/04/10 06:20:13;;;;;;;12.40;11.90;;;8.00;99.90;;;;;;5090788;28;20470;-68
2023/04/10 06:22:40;;;;;;;14.13;13.37;;;8.10;99.90;;;;;;5097960;28;20513;-68
2023/04/10 06:25:08;;;;;;;16.20;15.03;;;8.20;99.90;;;;;;5109106;28;20472;-67
2023/04/10 06:27:36;;;;;;;15.77;14.80;;;8.40;99.90;;;;;;5090097;28;20984;-68
2023/04/10 06:30:02;;;;;;;16.73;15.70;;;8.60;99.90;;;;;;5089459;28;20815;-68
2023/04/10 06:32:30;;;;;;;16.73;15.73;;;8.70;99.90;;;;;;5098241;28;20460;-68
2023/04/10 06:34:58;;;;;;;15.80;14.90;;;8.70;99.90;;;;;;5098766;28;20475;-68
2023/04/10 06:37:30;;;;;;;17.67;16.63;;;8.80;99.90;;;;;;5101436;28;20469;-69
2023/04/10 06:40:03;;;;;;;14.73;14.03;;;8.90;99.90;;;;;;5091607;28;20481;-67
2023/04/10 06:42:30;;;;;;;15.27;14.43;;;9.00;99.90;;;;;;5105178;28;20461;-68
2023/04/10 06:44:57;;;;;;;57.20;17.43;;;9.20;99.90;;;;;;5095478;28;20466;-68
2023/04/10 06:47:23;;;;;;;15.70;15.00;;;9.20;99.90;;;;;;5095698;28;20613;-69
2023/04/10 06:49:50;;;;;;;16.67;15.63;;;9.40;99.90;;;;;;5089135;28;20466;-69
2023/04/10 06:52:19;;;;;;;17.73;16.23;;;9.50;99.90;;;;;;5086211;28;20854;-68
2023/04/10 06:54:45;;;;;;;16.43;15.33;;;9.50;99.90;;;;;;5101524;28;20458;-67
2023/04/10 06:57:12;;;;;;;15.40;14.70;;;9.60;99.90;;;;;;5090912;28;20560;-69
2023/04/10 06:59:39;;;;;;;18.90;17.30;;;9.70;99.90;;;;;;5089472;28;20460;-68
2023/04/10 07:02:07;;;;;;;16.80;15.80;;;9.90;99.90;;;;;;5084369;28;20858;-68
2023/04/10 07:04:35;;;;;;;16.23;15.43;;;9.90;99.90;;;;;;5085742;28;20457;-68
2023/04/10 07:07:02;;;;;;;15.37;14.67;;;9.90;99.90;;;;;;5103070;28;20649;-67
2023/04/10 07:09:30;;;;;;;19.47;18.07;;;9.90;99.90;;;;;;5096556;28;20795;-68
2023/04/10 07:11:57;;;;;;;18.57;17.00;;;10.10;99.90;;;;;;5089741;28;20465;-67
2023/04/10 07:14:24;;;;;;;15.63;14.93;;;10.20;99.90;;;;;;5085066;28;20995;-68
2023/04/10 07:16:52;;;;;;;15.87;14.93;;;10.30;99.90;;;;;;5090715;28;20525;-68
2023/04/10 07:19:20;;;;;;;15.13;14.43;;;10.40;99.90;;;;;;5097546;28;20474;-69
2023/04/10 07:21:48;;;;;;;15.80;15.10;;;10.40;99.90;;;;;;5090847;28;20468;-68
2023/04/10 07:24:16;;;;;;;17.63;16.60;;;10.60;99.90;;;;;;5107274;28;20846;-68
2023/04/10 07:26:44;;;;;;;17.63;16.50;;;10.80;99.90;;;;;;5091629;28;20891;-69
2023/04/10 07:29:11;;;;;;;16.60;15.70;;;10.90;99.90;;;;;;5095336;28;20548;-69
2023/04/10 07:31:38;;;;;;;16.63;15.73;;;10.90;99.90;;;;;;5091844;28;20450;-68
2023/04/10 07:34:05;;;;;;;17.27;16.37;;;11.10;99.90;;;;;;5091544;28;20474;-68
2023/04/10 07:36:33;;;;;;;17.37;16.30;;;11.40;99.90;;;;;;5101097;28;20449;-69
2023/04/10 07:38:59;;;;;;;17.47;16.57;;;11.50;99.90;;;;;;5088702;28;20461;-68
2023/04/10 07:41:26;;;;;;;18.30;17.10;;;11.50;99.90;;;;;;5096778;28;20461;-68
2023/04/10 07:43:55;;;;;;;16.57;15.87;;;11.70;99.90;;;;;;5108355;28;20461;-68
2023/04/10 07:46:21;;;;;;;17.93;16.80;;;11.80;99.90;;;;;;5096053;28;20504;-67
2023/04/10 07:48:49;;;;;;;17.73;16.90;;;12.10;99.90;;;;;;5095532;28;20494;-69
2023/04/10 07:51:16;;;;;;;17.10;16.10;;;12.40;99.90;;;;;;5108577;28;20551;-67
2023/04/10 07:53:43;;;;;;;16.93;16.23;;;12.40;99.90;;;;;;5095290;28;20944;-69
2023/04/10 07:56:16;;;;;;;18.83;17.63;;;12.50;99.90;;;;;;5107480;28;20453;-68
2023/04/10 07:58:43;;;;;;;17.80;16.90;;;12.70;99.90;;;;;;5105849;28;20545;-69
2023/04/10 08:01:11;;;;;;;16.83;15.97;;;13.00;99.90;;;;;;5088003;28;20470;-69
2023/04/10 08:03:40;;;;;;;16.43;15.60;;;13.10;99.90;;;;;;5101000;28;20507;-69
2023/04/10 08:06:09;;;;;;;18.60;17.60;;;13.00;99.90;;;;;;5089228;28;20492;-69
2023/04/10 08:08:37;;;;;;;17.03;16.23;;;13.10;99.90;;;;;;5092550;28;20515;-68
2023/04/10 08:11:07;;;;;;;17.67;16.80;;;13.30;99.90;;;;;;5098779;28;20555;-69
2023/04/10 08:13:34;;;;;;;16.97;16.17;;;13.40;99.90;;;;;;5094945;28;20468;-69
2023/04/10 08:16:02;;;;;;;18.20;17.20;;;13.30;99.90;;;;;;5096374;28;20490;-69
2023/04/10 08:18:30;;;;;;;20.13;17.23;;;13.30;99.90;;;;;;5093294;28;20497;-68
2023/04/10 08:20:57;;;;;;;18.90;17.90;;;13.50;99.90;;;;;;5095671;28;20995;-69
2023/04/10 08:23:23;;;;;;;17.80;16.60;;;13.70;99.90;;;;;;5101379;28;20466;-69
2023/04/10 08:25:51;;;;;;;16.73;15.90;;;13.70;99.90;;;;;;5100233;28;20854;-69
2023/04/10 08:28:18;;;;;;;18.37;17.37;;;13.60;99.90;;;;;;5093828;28;21055;-69
2023/04/10 08:30:45;;;;;;;18.63;17.63;;;13.60;99.90;;;;;;5094713;28;20450;-68
2023/04/10 08:33:11;;;;;;;17.90;16.83;;;13.60;99.90;;;;;;5094178;28;20518;-69
2023/04/10 08:35:40;;;;;;;16.10;15.40;;;13.60;99.90;;;;;;5094439;28;20466;-69
2023/04/10 08:38:07;;;;;;;17.13;16.20;;;13.70;99.90;;;;;;5078461;28;20456;-68
2023/04/10 08:40:37;;;;;;;15.70;15.00;;;13.80;99.90;;;;;;5101077;28;20569;-69
2023/04/10 08:43:04;;;;;;;17.50;16.60;;;13.60;99.90;;;;;;5078116;28;20553;-69
2023/04/10 08:45:31;;;;;;;63.63;18.17;;;13.60;99.90;;;;;;5094089;28;20462;-69
2023/04/10 08:48:01;;;;;;;37.83;18.13;;;13.70;99.90;;;;;;5111719;28;20899;-68
2023/04/10 08:50:30;;;;;;;16.27;15.57;;;13.80;99.90;;;;;;5086195;28;20461;-69
2023/04/10 08:53:03;;;;;;;16.97;16.17;;;14.00;99.90;;;;;;5095179;28;20453;-69
2023/04/10 08:55:30;;;;;;;18.93;18.03;;;14.20;99.90;;;;;;5103761;28;20507;-69
2023/04/10 08:57:57;;;;;;;17.93;16.87;;;14.40;99.90;;;;;;5106555;28;20830;-69
2023/04/10 09:00:25;;;;;;;16.50;15.80;;;14.70;99.90;;;;;;5102011;28;20450;-68
2023/04/10 09:02:56;;;;;;;15.77;15.07;;;14.80;99.90;;;;;;5094254;28;20457;-69
2023/04/10 09:05:24;;;;;;;17.73;16.53;;;14.90;99.90;;;;;;5106958;28;20483;-69
2023/04/10 09:07:51;;;;;;;17.33;16.30;;;15.20;99.90;;;;;;5094873;28;20641;-68
2023/04/10 09:10:20;;;;;;;16.37;15.67;;;15.60;99.90;;;;;;5107392;28;20456;-69
2023/04/10 09:12:48;;;;;;;19.00;17.90;;;16.10;99.90;;;;;;5098201;28;20551;-69
2023/04/10 09:15:16;;;;;;;16.93;16.13;;;16.50;99.90;;;;;;5099772;28;20857;-69
2023/04/10 09:17:57;;;;;;;28.40;18.67;;;16.80;99.90;;;;;;5103746;28;20876;-70
2023/04/10 09:20:25;;;;;;;18.13;17.23;;;16.60;99.80;;;;;;5097508;28;20457;-70
2023/04/10 09:22:52;;;;;;;19.50;17.90;;;16.50;99.90;;;;;;5103462;28;20560;-69
2023/04/10 09:25:42;;;;;;;18.93;17.27;;;16.70;98.90;;;;;;5104641;28;20818;-70
2023/04/10 09:28:10;;;;;;;16.30;15.50;;;16.60;98.90;;;;;;5093703;28;20954;-70
2023/04/10 09:30:39;;;;;;;24.70;16.03;;;16.90;98.80;;;;;;5104224;28;20644;-69
2023/04/10 09:33:21;;;;;;;17.17;16.37;;;17.10;98.80;;;;;;5091066;28;20801;-69
2023/04/10 09:35:48;;;;;;;15.93;15.23;;;17.50;97.40;;;;;;5085873;28;20825;-69
2023/04/10 09:38:16;;;;;;;17.00;16.20;;;17.60;97.00;;;;;;5097064;28;20457;-69
2023/04/10 09:40:45;;;;;;;16.97;16.03;;;17.70;97.20;;;;;;5101563;27;20511;-69
2023/04/10 09:43:20;;;;;;;15.80;15.10;;;17.50;96.60;;;;;;5097848;28;20893;-69
2023/04/10 09:45:48;;;;;;;22.13;15.53;;;17.70;96.70;;;;;;5089178;28;20449;-70
2023/04/10 09:48:15;;;;;;;17.23;16.40;;;17.90;95.90;;;;;;5107295;28;20496;-69
2023/04/10 09:50:42;;;;;;;18.60;15.37;;;18.20;95.30;;;;;;5099731;28;20898;-70
2023/04/10 09:53:11;;;;;;;16.80;15.90;;;18.40;95.70;;;;;;5103846;28;20454;-70
2023/04/10 09:55:38;;;;;;;15.63;14.93;;;18.40;95.40;;;;;;5101490;28;21004;-70
2023/04/10 09:58:07;;;;;;;18.30;17.40;;;18.60;95.90;;;;;;5105870;28;20454;-69
2023/04/10 10:00:40;;;;;;;17.17;15.77;;;19.20;95.00;;;;;;5097648;28;20933;-70
2023/04/10 10:03:10;;;;;;;18.87;17.60;;;19.50;93.40;;;;;;5103716;28;20458;-71
2023/04/10 10:05:41;;;;;;;16.00;15.10;;;19.80;93.10;;;;;;5096753;28;20454;-69
2023/04/10 10:08:10;;;;;;;15.80;15.10;;;19.90;92.00;;;;;;5102225;28;20844;-68
2023/04/10 10:10:44;;;;;;;15.33;14.63;;;20.20;91.30;;;;;;5091503;28;20454;-69
2023/04/10 10:13:17;;;;;;;15.70;15.00;;;19.80;88.60;;;;;;5101044;28;20466;-68
2023/04/10 10:15:49;;;;;;;22.10;15.03;;;19.70;90.00;;;;;;5101550;28;20451;-69
2023/04/10 10:18:26;;;;;;;14.80;14.20;;;20.00;89.50;;;;;;5097918;28;20501;-68
2023/04/10 10:20:54;;;;;;;16.50;15.10;;;20.10;86.70;;;;;;5103477;28;20497;-67
2023/04/10 10:23:22;;;;;;;15.50;14.80;;;19.70;84.30;;;;;;5103170;28;20472;-69
2023/04/10 10:25:50;;;;;;;15.20;14.50;;;19.80;85.30;;;;;;5069725;28;20455;-68
2023/04/10 10:28:20;;;;;;;14.70;14.10;;;19.50;84.70;;;;;;5102482;28;20598;-69
2023/04/10 10:30:48;;;;;;;14.73;14.13;;;19.70;84.70;;;;;;5096250;28;20462;-69
2023/04/10 10:33:15;;;;;;;16.73;15.30;;;20.00;86.00;;;;;;5083255;28;20793;-69
2023/04/10 10:35:42;;;;;;;18.57;17.37;;;19.80;83.10;;;;;;5096574;28;20462;-69
2023/04/10 10:38:10;;;;;;;15.20;14.60;;;19.70;82.50;;;;;;5103117;28;20511;-69
2023/04/10 10:40:43;;;;;;;15.50;14.80;;;19.70;82.00;;;;;;5097758;28;20968;-69
2023/04/10 10:43:16;;;;;;;16.60;15.80;;;19.60;81.70;;;;;;5103614;28;20933;-69
2023/04/10 10:45:52;;;;;;;16.77;15.90;;;19.40;82.80;;;;;;5091031;28;20458;-68
2023/04/10 10:48:19;;;;;;;16.57;15.77;;;19.10;82.10;;;;;;5097234;28;21050;-69
2023/04/10 10:50:55;;;;;;;16.00;15.20;;;19.30;83.60;;;;;;5103056;28;20813;-69
2023/04/10 10:53:37;;;;;;;16.40;15.70;;;19.30;82.80;;;;;;5102347;28;20875;-70
2023/04/10 10:56:36;;;;;;;16.07;15.33;;;19.30;81.70;;;;;;5085796;28;20528;-69
2023/04/10 10:59:03;;;;;;;17.07;16.27;;;19.50;83.80;;;;;;5106202;28;21012;-68
2023/04/10 11:01:31;;;;;;;15.80;15.10;;;19.70;82.30;;;;;;5096063;28;20457;-68
2023/04/10 11:04:00;;;;;;;16.93;16.13;;;19.80;82.20;;;;;;5082322;28;20484;-69
2023/04/10 11:06:49;;;;;;;16.73;15.63;;;19.70;80.50;;;;;;5108236;28;20709;-68
2023/04/10 11:09:48;;;;;;;15.57;14.87;;;19.60;81.40;;;;;;5089799;28;20486;-68
2023/04/10 11:12:16;;;;;;;16.60;15.60;;;19.50;82.60;;;;;;5085081;28;20479;-68
2023/04/10 11:14:45;;;;;;;16.10;15.40;;;19.90;81.40;;;;;;5095880;28;20454;-69
2023/04/10 11:17:13;;;;;;;16.47;15.67;;;19.90;80.20;;;;;;5091142;28;20450;-70
2023/04/10 11:19:59;;;;;;;16.37;15.67;;;19.70;77.40;;;;;;5093462;28;20454;-69
2023/04/10 11:22:27;;;;;;;15.47;14.80;;;19.50;79.10;;;;;;5096462;28;20548;-70
2023/04/10 11:25:01;;;;;;;15.90;15.00;;;19.60;79.50;;;;;;5102019;28;20935;-68
2023/04/10 11:27:47;;;;;;;16.20;15.50;;;19.60;79.80;;;;;;5098841;28;20461;-68
2023/04/10 11:30:37;;;;;;;15.90;15.20;;;19.50;80.60;;;;;;5096798;28;20449;-68
2023/04/10 11:33:06;;;;;;;16.30;15.50;;;19.40;78.20;;;;;;5101834;28;20843;-70
2023/04/10 11:35:33;;;;;;;16.10;15.30;;;19.60;79.60;;;;;;5101748;28;21095;-68
2023/04/10 11:38:20;;;;;;;16.07;15.33;;;19.80;77.50;;;;;;5094470;28;20460;-69
2023/04/10 11:40:57;;;;;;;15.73;15.00;;;19.80;77.80;;;;;;5092205;28;20485;-70
2023/04/10 11:43:25;;;;;;;15.80;15.10;;;20.00;78.60;;;;;;5100359;28;20462;-69
2023/04/10 11:46:04;;;;;;;15.43;14.83;;;20.10;77.40;;;;;;5090934;28;20570;-69
2023/04/10 11:48:33;;;;;;;15.60;14.90;;;20.20;77.20;;;;;;5101479;28;20476;-69
2023/04/10 11:51:06;;;;;;;15.80;15.10;;;20.40;77.30;;;;;;5096207;28;20544;-69
2023/04/10 11:53:33;;;;;;;16.07;15.37;;;20.60;76.40;;;;;;5095182;28;20508;-70
2023/04/10 11:56:00;;;;;;;15.03;14.43;;;20.60;76.80;;;;;;5103949;28;20445;-68
2023/04/10 11:58:29;;;;;;;15.97;15.17;;;20.80;76.90;;;;;;5105817;28;20449;-70
2023/04/10 12:01:01;;;;;;;16.73;15.97;;;21.00;74.80;;;;;;5090308;28;20466;-69
2023/04/10 12:03:41;;;;;;;15.70;14.90;;;21.50;72.10;;;;;;5105719;28;20551;-69
2023/04/10 12:06:10;;;;;;;14.97;14.27;;;21.80;68.60;;;;;;5094820;28;20478;-68
2023/04/10 12:08:38;;;;;;;14.73;14.13;;;21.90;68.00;;;;;;5096549;28;20512;-70
2023/04/10 12:11:06;;;;;;;14.60;14.00;;;22.30;65.50;;;;;;5093515;28;20465;-69
2023/04/10 12:13:32;;;;;;;14.40;13.80;;;22.60;65.50;;;;;;5095964;28;20553;-68
2023/04/10 12:16:01;;;;;;;15.20;14.60;;;22.50;63.20;;;;;;5099019;28;20450;-69
2023/04/10 12:18:30;;;;;;;15.40;14.70;;;22.50;63.40;;;;;;5100016;28;20533;-70
2023/04/10 12:21:00;;;;;;;15.30;14.70;;;22.90;61.50;;;;;;5094972;28;20469;-69
2023/04/10 12:23:28;;;;;;;14.63;14.03;;;23.20;59.60;;;;;;5094725;28;20462;-69
2023/04/10 12:26:08;;;;;;;14.70;14.10;;;23.00;60.30;;;;;;5100813;28;20503;-71
2023/04/10 12:28:37;;;;;;;16.50;15.60;;;23.10;59.10;;;;;;5101494;28;20493;-69
2023/04/10 12:31:04;;;;;;;15.77;14.97;;;23.60;58.60;;;;;;5089009;28;20450;-69
2023/04/10 12:33:32;;;;;;;14.90;14.30;;;23.50;56.80;;;;;;5101320;28;20469;-69
2023/04/10 12:36:00;;;;;;;16.97;16.20;;;23.60;56.10;;;;;;5098369;28;20461;-70
2023/04/10 12:38:41;;;;;;;14.67;14.07;;;24.10;55.30;;;;;;5094550;28;20538;-69
2023/04/10 12:41:10;;;;;;;15.87;14.97;;;24.10;54.50;;;;;;5091606;28;20478;-70
2023/04/10 12:43:38;;;;;;;15.17;14.50;;;24.30;54.70;;;;;;5080436;28;20508;-71